Time;durP1;ratioP1;P1;durP2;ratioP2;P2;SDS_P1;SDS_P2;PMS_P1;PMS_P2;Temp;Humidity;BMP_temperature;BMP_pressure;BME280_temperature;BME280_humidity;BME280_pressure;Samples;Min_cycle;Max_cycle;Signal;HPM_P1;HPM_P2
2022/09/25 00:00:22;;;;;;;2.50;2.00;;;;;;;;;;8319427;28;20051;-59
2022/09/25 00:04:22;;;;;;;3.90;1.90;;;;;;;;;;8320039;28;20025;-59
2022/09/25 00:08:22;;;;;;;1.95;1.83;;;;;;;;;;8317570;28;20604;-58
2022/09/25 00:12:23;;;;;;;2.40;2.00;;;;;;;;;;8323128;28;20032;-58
2022/09/25 00:16:24;;;;;;;2.83;1.90;;;;;;;;;;8320576;28;20033;-59
2022/09/25 00:20:24;;;;;;;2.20;2.00;;;;;;;;;;8318777;28;20033;-58
2022/09/25 00:24:25;;;;;;;2.10;1.90;;;;;;;;;;8319980;28;20014;-59
2022/09/25 00:28:27;;;;;;;2.72;2.30;;;;;;;;;;8318256;28;20083;-59
2022/09/25 00:32:28;;;;;;;2.88;2.03;;;;;;;;;;8316400;28;20029;-60
2022/09/25 00:36:28;;;;;;;2.30;2.00;;;;;;;;;;8315527;28;20097;-59
2022/09/25 00:40:28;;;;;;;3.10;2.20;;;;;;;;;;8316718;28;20290;-59
2022/09/25 00:44:51;;;;;;;2.65;2.20;;;;;;;;;;8320147;28;20013;-59
2022/09/25 00:49:11;;;;;;;2.60;1.80;;;;;;;;;;8259326;28;20045;-59
2022/09/25 00:53:15;;;;;;;2.42;1.67;;;;;;;;;;8272774;28;20045;-60
2022/09/25 00:57:18;;;;;;;3.85;2.00;;;;;;;;;;8275293;28;20033;-60
2022/09/25 01:01:18;;;;;;;2.00;1.65;;;;;;;;;;8270650;28;20112;-59
2022/09/25 01:05:21;;;;;;;2.15;1.85;;;;;;;;;;8273798;28;20025;-60
2022/09/25 01:09:22;;;;;;;2.17;1.70;;;;;;;;;;8275770;28;20029;-59
2022/09/25 01:13:22;;;;;;;2.00;1.80;;;;;;;;;;8271877;28;20030;-60
2022/09/25 01:17:25;;;;;;;2.05;1.88;;;;;;;;;;8283293;28;20493;-59
2022/09/25 01:21:35;;;;;;;3.17;1.73;;;;;;;;;;8292444;28;20438;-59
2022/09/25 01:25:46;;;;;;;4.07;1.98;;;;;;;;;;8291682;28;20021;-59
2022/09/25 01:29:46;;;;;;;1.77;1.67;;;;;;;;;;8292505;28;20018;-60
2022/09/25 01:33:49;;;;;;;2.70;2.03;;;;;;;;;;8287986;28;20065;-59
2022/09/25 01:37:54;;;;;;;3.03;2.03;;;;;;;;;;8290723;28;20040;-61
2022/09/25 01:42:01;;;;;;;2.40;1.90;;;;;;;;;;8294808;28;20378;-59
2022/09/25 01:46:12;;;;;;;2.53;1.60;;;;;;;;;;8291674;28;20449;-60
2022/09/25 01:50:33;;;;;;;3.22;1.70;;;;;;;;;;8290569;28;20020;-59
2022/09/25 01:54:36;;;;;;;2.53;1.55;;;;;;;;;;8291843;28;20533;-59
2022/09/25 01:58:40;;;;;;;1.63;1.53;;;;;;;;;;8290123;28;20026;-59
2022/09/25 02:02:43;;;;;;;2.90;1.70;;;;;;;;;;8290225;28;20087;-60
2022/09/25 02:06:44;;;;;;;;;;;;;;;;;;8292046;28;20111;-59
2022/09/25 02:10:50;;;;;;;1.65;1.48;;;;;;;;;;8288706;28;19913;-60
2022/09/25 02:14:53;;;;;;;1.67;1.58;;;;;;;;;;8293904;28;20484;-60
2022/09/25 02:23:18;;;;;;;1.88;1.65;;;;;;;;;;8290019;28;20059;-60
2022/09/25 02:27:19;;;;;;;1.80;1.60;;;;;;;;;;8291645;28;20032;-60
2022/09/25 02:31:20;;;;;;;1.60;1.50;;;;;;;;;;8290418;28;20590;-60
2022/09/25 02:35:20;;;;;;;3.22;1.73;;;;;;;;;;8292286;28;20025;-60
2022/09/25 02:39:22;;;;;;;1.83;1.73;;;;;;;;;;8295550;28;20080;-60
2022/09/25 02:43:34;;;;;;;3.17;1.70;;;;;;;;;;8290428;28;20189;-60
2022/09/25 02:47:38;;;;;;;1.55;1.45;;;;;;;;;;8288288;28;20033;-60
2022/09/25 02:51:48;;;;;;;1.55;1.45;;;;;;;;;;8293285;28;20108;-60
2022/09/25 02:55:49;;;;;;;1.98;1.52;;;;;;;;;;8292070;28;20048;-59
2022/09/25 02:59:52;;;;;;;1.70;1.30;;;;;;;;;;8289093;28;21034;-60
2022/09/25 03:03:55;;;;;;;3.05;1.40;;;;;;;;;;8287671;28;20056;-59
2022/09/25 03:12:14;;;;;;;1.33;1.10;;;;;;;;;;8288966;28;20886;-59
2022/09/25 03:16:19;;;;;;;1.95;1.40;;;;;;;;;;8285905;28;20029;-60
2022/09/25 03:20:19;;;;;;;1.55;1.23;;;;;;;;;;8288995;28;20037;-60
2022/09/25 03:24:20;;;;;;;1.25;1.15;;;;;;;;;;8290795;28;20107;-60
2022/09/25 03:28:21;;;;;;;1.00;0.90;;;;;;;;;;8285728;28;20055;-59
2022/09/25 03:32:21;;;;;;;1.58;1.10;;;;;;;;;;8285158;28;20090;-59
2022/09/25 03:36:22;;;;;;;1.20;1.10;;;;;;;;;;8285184;28;20125;-60
2022/09/25 03:40:22;;;;;;;1.23;1.13;;;;;;;;;;8285742;28;20037;-60
2022/09/25 03:44:23;;;;;;;1.42;1.20;;;;;;;;;;8284322;28;20033;-60
2022/09/25 03:48:23;;;;;;;1.70;1.17;;;;;;;;;;8286990;28;20034;-59
2022/09/25 03:52:23;;;;;;;1.40;1.30;;;;;;;;;;8287348;28;20029;-60
2022/09/25 03:56:25;;;;;;;1.25;1.13;;;;;;;;;;8284976;28;20386;-59
2022/09/25 04:00:25;;;;;;;1.13;1.02;;;;;;;;;;8283460;28;20951;-60
2022/09/25 04:04:25;;;;;;;1.63;1.50;;;;;;;;;;8287734;28;20023;-59
2022/09/25 04:08:26;;;;;;;1.60;1.50;;;;;;;;;;8286026;28;20032;-60
2022/09/25 04:12:27;;;;;;;1.77;1.67;;;;;;;;;;8284713;28;20681;-60
2022/09/25 04:16:28;;;;;;;1.60;1.50;;;;;;;;;;8289447;28;20099;-60
2022/09/25 04:20:28;;;;;;;4.82;1.60;;;;;;;;;;8288942;28;20037;-60
2022/09/25 04:24:47;;;;;;;3.28;2.10;;;;;;;;;;8288831;28;20049;-59
2022/09/25 04:28:47;;;;;;;2.05;1.80;;;;;;;;;;8293567;28;20632;-60
2022/09/25 04:37:07;;;;;;;2.00;1.80;;;;;;;;;;8297967;28;20933;-60
2022/09/25 04:41:07;;;;;;;1.98;1.77;;;;;;;;;;8294455;28;20017;-60
2022/09/25 04:45:07;;;;;;;1.80;1.70;;;;;;;;;;8291838;28;20032;-59
2022/09/25 04:49:07;;;;;;;1.85;1.60;;;;;;;;;;8296125;28;20286;-59
2022/09/25 04:53:08;;;;;;;1.50;1.40;;;;;;;;;;8294050;28;20527;-59
2022/09/25 04:57:08;;;;;;;1.65;1.55;;;;;;;;;;8291990;28;21065;-59
2022/09/25 05:01:09;;;;;;;4.10;1.50;;;;;;;;;;8292147;28;20079;-60
2022/09/25 05:05:09;;;;;;;2.80;1.52;;;;;;;;;;8293341;28;20040;-60
2022/09/25 05:09:09;;;;;;;1.50;1.40;;;;;;;;;;8295007;28;20034;-60
2022/09/25 05:13:10;;;;;;;1.40;1.30;;;;;;;;;;8294845;28;20601;-59
2022/09/25 05:17:10;;;;;;;1.65;1.55;;;;;;;;;;8288605;28;20524;-60
2022/09/25 05:21:10;;;;;;;1.20;1.20;;;;;;;;;;8292473;28;20028;-58
2022/09/25 05:25:10;;;;;;;1.60;1.50;;;;;;;;;;8292375;28;20116;-59
2022/09/25 05:29:11;;;;;;;1.60;1.50;;;;;;;;;;8289008;28;20368;-59
2022/09/25 05:33:11;;;;;;;1.67;1.57;;;;;;;;;;8290812;28;20561;-60
2022/09/25 05:37:11;;;;;;;2.08;1.63;;;;;;;;;;8287849;28;20020;-58
2022/09/25 05:41:12;;;;;;;1.67;1.58;;;;;;;;;;8288817;28;20040;-58
2022/09/25 05:45:16;;;;;;;1.70;1.60;;;;;;;;;;8294506;28;20067;-60
2022/09/25 05:49:17;;;;;;;1.40;1.30;;;;;;;;;;8291409;28;20018;-60
2022/09/25 05:53:17;;;;;;;1.60;1.50;;;;;;;;;;8291880;28;20125;-60
2022/09/25 05:57:17;;;;;;;1.70;1.60;;;;;;;;;;8293858;28;20032;-59
2022/09/25 06:01:18;;;;;;;4.10;1.70;;;;;;;;;;8290405;28;20045;-60
2022/09/25 06:05:18;;;;;;;1.50;1.40;;;;;;;;;;8291175;28;20028;-60
2022/09/25 06:09:18;;;;;;;1.83;1.73;;;;;;;;;;8292663;28;20029;-60
2022/09/25 06:13:20;;;;;;;1.70;1.60;;;;;;;;;;8291816;28;20025;-59
2022/09/25 06:17:21;;;;;;;1.73;1.63;;;;;;;;;;8289939;28;20029;-58
2022/09/25 06:21:21;;;;;;;1.95;1.63;;;;;;;;;;8293763;28;20025;-60
2022/09/25 06:25:22;;;;;;;1.70;1.60;;;;;;;;;;8294576;28;20049;-59
2022/09/25 06:29:23;;;;;;;1.38;1.27;;;;;;;;;;8294941;28;20055;-59
2022/09/25 06:33:23;;;;;;;1.48;1.38;;;;;;;;;;8297205;28;20029;-58
2022/09/25 06:37:23;;;;;;;3.10;1.50;;;;;;;;;;8290814;28;20040;-58
2022/09/25 06:41:23;;;;;;;1.20;1.20;;;;;;;;;;8287159;28;20026;-59
2022/09/25 06:45:25;;;;;;;1.80;1.60;;;;;;;;;;8286453;28;20048;-59
2022/09/25 06:49:26;;;;;;;1.60;1.50;;;;;;;;;;8291077;28;20098;-59
2022/09/25 06:53:26;;;;;;;1.50;1.40;;;;;;;;;;8286824;28;20021;-58
2022/09/25 06:57:26;;;;;;;1.98;1.80;;;;;;;;;;8290549;28;20023;-60
2022/09/25 07:01:26;;;;;;;3.35;1.70;;;;;;;;;;8290873;28;20095;-59
2022/09/25 07:05:26;;;;;;;3.03;1.80;;;;;;;;;;8286818;28;20022;-59
2022/09/25 07:09:27;;;;;;;1.73;1.60;;;;;;;;;;8287894;28;20072;-59
2022/09/25 07:13:28;;;;;;;2.65;1.55;;;;;;;;;;8287819;28;20103;-58
2022/09/25 07:17:29;;;;;;;2.03;1.90;;;;;;;;;;8286927;28;20045;-59
2022/09/25 07:21:30;;;;;;;2.53;1.90;;;;;;;;;;8285999;28;20817;-60
2022/09/25 07:25:31;;;;;;;2.75;1.80;;;;;;;;;;8288463;28;21006;-59
2022/09/25 07:29:31;;;;;;;2.92;1.70;;;;;;;;;;8290336;28;20033;-59
2022/09/25 07:33:31;;;;;;;1.58;1.42;;;;;;;;;;8276668;28;20115;-60
2022/09/25 07:37:31;;;;;;;3.85;1.67;;;;;;;;;;8288700;28;20024;-60
2022/09/25 07:41:33;;;;;;;2.60;2.20;;;;;;;;;;8286469;28;20063;-59
2022/09/25 07:45:33;;;;;;;2.38;2.17;;;;;;;;;;8288267;28;20172;-60
2022/09/25 07:49:33;;;;;;;2.10;2.00;;;;;;;;;;8288642;28;20426;-60
2022/09/25 07:53:34;;;;;;;3.05;2.20;;;;;;;;;;8288814;28;20551;-59
2022/09/25 07:57:34;;;;;;;3.13;2.53;;;;;;;;;;8289169;28;20021;-60
2022/09/25 08:01:34;;;;;;;2.40;2.13;;;;;;;;;;8287051;28;20037;-60
2022/09/25 08:05:34;;;;;;;2.90;2.40;;;;;;;;;;8296093;28;20072;-59
2022/09/25 08:09:35;;;;;;;3.30;2.40;;;;;;;;;;8294082;28;20497;-60
2022/09/25 08:13:37;;;;;;;2.47;2.25;;;;;;;;;;8293228;28;20057;-59
2022/09/25 08:17:37;;;;;;;2.70;2.50;;;;;;;;;;8296820;28;20129;-59
2022/09/25 08:21:37;;;;;;;4.05;2.40;;;;;;;;;;8283164;28;20053;-61
2022/09/25 08:25:37;;;;;;;3.15;2.00;;;;;;;;;;8291740;28;20084;-61
2022/09/25 08:29:37;;;;;;;2.40;2.20;;;;;;;;;;8294151;28;20104;-60
2022/09/25 08:33:39;;;;;;;2.13;1.95;;;;;;;;;;8299748;28;20041;-60
2022/09/25 08:37:40;;;;;;;2.53;1.70;;;;;;;;;;8305716;28;20021;-59
2022/09/25 08:41:45;;;;;;;1.70;1.60;;;;;;;;;;8307735;28;20020;-60
2022/09/25 08:50:10;;;;;;;3.10;1.67;;;;;;;;;;8292397;28;20055;-59
2022/09/25 08:54:22;;;;;;;2.00;1.80;;;;;;;;;;8292863;28;20064;-59
2022/09/25 08:58:24;;;;;;;1.70;1.60;;;;;;;;;;8293699;28;20041;-60
2022/09/25 09:02:40;;;;;;;2.40;2.20;;;;;;;;;;8292408;28;20303;-60
2022/09/25 09:06:42;;;;;;;2.35;2.15;;;;;;;;;;8292458;28;20076;-59
2022/09/25 09:10:44;;;;;;;2.92;2.20;;;;;;;;;;8289939;28;21041;-60
2022/09/25 09:14:46;;;;;;;2.97;2.40;;;;;;;;;;8292802;28;20034;-63
2022/09/25 09:18:46;;;;;;;3.10;2.80;;;;;;;;;;8291912;28;20041;-59
2022/09/25 09:22:49;;;;;;;3.80;3.38;;;;;;;;;;8290762;28;20035;-59
2022/09/25 09:27:11;;;;;;;6.67;5.33;;;;;;;;;;8292576;28;20021;-60
2022/09/25 09:31:16;;;;;;;8.40;5.85;;;;;;;;;;8290518;28;20037;-60
2022/09/25 09:35:34;;;;;;;9.40;6.22;;;;;;;;;;8289726;28;20021;-59
2022/09/25 09:39:41;;;;;;;7.03;5.93;;;;;;;;;;8290893;28;20032;-59
2022/09/25 09:43:53;;;;;;;10.00;6.45;;;;;;;;;;8295437;28;20025;-60
2022/09/25 09:48:03;;;;;;;8.02;6.35;;;;;;;;;;8291022;28;20041;-60
2022/09/25 09:52:09;;;;;;;7.82;6.18;;;;;;;;;;8287186;28;20461;-60
2022/09/25 09:56:12;;;;;;;7.22;5.60;;;;;;;;;;8289949;28;20452;-60
2022/09/25 10:00:14;;;;;;;5.82;5.22;;;;;;;;;;8291773;28;20040;-60
2022/09/25 10:04:19;;;;;;;7.78;6.00;;;;;;;;;;8290628;28;20025;-60
2022/09/25 10:08:19;;;;;;;7.85;6.43;;;;;;;;;;8294188;28;20612;-59
2022/09/25 10:12:32;;;;;;;7.00;6.30;;;;;;;;;;8291273;28;20018;-60
2022/09/25 10:16:32;;;;;;;8.07;7.00;;;;;;;;;;8290935;28;20517;-59
2022/09/25 10:20:37;;;;;;;7.25;6.22;;;;;;;;;;8289812;28;20114;-59
2022/09/25 10:24:50;;;;;;;8.00;6.47;;;;;;;;;;8287848;28;20017;-59
2022/09/25 10:28:50;;;;;;;8.43;6.82;;;;;;;;;;8288534;28;20034;-60
2022/09/25 10:32:54;;;;;;;6.85;5.78;;;;;;;;;;8291476;28;20297;-60
2022/09/25 10:36:55;;;;;;;6.97;5.57;;;;;;;;;;8289789;28;20026;-59
2022/09/25 10:41:00;;;;;;;8.07;6.32;;;;;;;;;;8288780;28;20631;-61
2022/09/25 10:45:14;;;;;;;6.30;5.70;;;;;;;;;;8287369;28;20040;-59
2022/09/25 10:53:36;;;;;;;6.15;5.57;;;;;;;;;;8318963;28;20128;-60
2022/09/25 10:57:37;;;;;;;9.85;6.55;;;;;;;;;;8319338;28;20573;-60
2022/09/25 11:01:38;;;;;;;6.70;6.00;;;;;;;;;;8315305;28;20557;-61
2022/09/25 11:05:46;;;;;;;7.03;6.35;;;;;;;;;;8316841;28;20483;-59
2022/09/25 11:09:46;;;;;;;8.38;6.80;;;;;;;;;;8319552;28;20025;-60
2022/09/25 11:13:53;;;;;;;6.53;5.90;;;;;;;;;;8320768;28;20233;-59
2022/09/25 11:17:57;;;;;;;7.57;6.78;;;;;;;;;;8317057;28;20044;-59
2022/09/25 11:22:33;;;;;;;8.55;7.18;;;;;;;;;;8316396;28;20545;-59
2022/09/25 11:26:36;;;;;;;8.00;7.07;;;;;;;;;;8228065;28;20033;-60
2022/09/25 11:30:41;;;;;;;9.10;6.50;;;;;;;;;;8318706;28;20029;-60
2022/09/25 11:34:45;;;;;;;9.70;6.60;;;;;;;;;;8316605;28;20504;-59
2022/09/25 11:43:06;;;;;;;7.78;6.97;;;;;;;;;;8311099;28;20629;-60
2022/09/25 11:47:17;;;;;;;8.30;7.28;;;;;;;;;;8317077;28;20032;-60
2022/09/25 11:51:26;;;;;;;8.98;8.07;;;;;;;;;;8317601;28;20545;-60
2022/09/25 11:55:45;;;;;;;9.07;8.10;;;;;;;;;;8315891;28;20023;-60
2022/09/25 12:00:11;;;;;;;9.32;8.00;;;;;;;;;;8314843;28;20025;-59
2022/09/25 12:04:14;;;;;;;9.13;8.23;;;;;;;;;;8259787;28;20139;-60
2022/09/25 12:08:25;;;;;;;10.23;9.10;;;;;;;;;;8264132;28;20026;-60
2022/09/25 12:12:35;;;;;;;12.40;9.15;;;;;;;;;;8264595;28;20508;-59
2022/09/25 12:16:51;;;;;;;10.13;8.00;;;;;;;;;;8270697;28;20030;-59
2022/09/25 12:20:56;;;;;;;9.98;7.88;;;;;;;;;;8282920;28;20033;-59
2022/09/25 12:25:03;;;;;;;9.25;7.72;;;;;;;;;;8283804;28;20878;-59
2022/09/25 12:29:15;;;;;;;12.65;9.10;;;;;;;;;;8283397;28;20116;-59
2022/09/25 12:33:38;;;;;;;9.60;8.05;;;;;;;;;;8285609;28;20099;-60
2022/09/25 12:37:42;;;;;;;9.50;8.20;;;;;;;;;;8285765;28;20025;-60
2022/09/25 12:41:46;;;;;;;8.88;6.30;;;;;;;;;;8286880;28;20415;-60
2022/09/25 12:45:50;;;;;;;6.10;5.43;;;;;;;;;;8287359;28;20086;-60
2022/09/25 12:49:55;;;;;;;5.40;4.50;;;;;;;;;;8292576;28;20080;-59
2022/09/25 12:54:14;;;;;;;6.60;4.45;;;;;;;;;;8290133;28;20028;-61
2022/09/25 12:58:20;;;;;;;4.88;3.65;;;;;;;;;;8289407;28;20542;-60
2022/09/25 13:02:20;;;;;;;3.65;3.22;;;;;;;;;;8285860;28;20064;-59
2022/09/25 13:06:35;;;;;;;3.67;3.38;;;;;;;;;;8270864;28;20470;-59
2022/09/25 13:10:40;;;;;;;5.13;3.17;;;;;;;;;;8270673;28;20426;-59
2022/09/25 13:14:43;;;;;;;2.80;2.60;;;;;;;;;;8270007;28;20119;-60
2022/09/25 13:18:47;;;;;;;5.55;3.03;;;;;;;;;;8270153;28;20176;-59
2022/09/25 13:22:47;;;;;;;;;;;;;;;;;;8267661;28;20125;-59
2022/09/25 13:26:52;;;;;;;7.65;1.98;;;;;;;;;;8270193;28;20764;-59
2022/09/25 13:31:01;;;;;;;2.00;1.80;;;;;;;;;;8269352;28;20034;-59
2022/09/25 13:35:02;;;;;;;1.75;1.50;;;;;;;;;;8270479;28;20083;-60
2022/09/25 13:43:37;;;;;;;1.70;1.60;;;;;;;;;;8270431;28;20080;-59
2022/09/25 13:47:37;;;;;;;1.70;1.60;;;;;;;;;;8268774;28;20030;-59
2022/09/25 13:51:43;;;;;;;1.83;1.73;;;;;;;;;;8270778;28;20029;-60
2022/09/25 13:55:49;;;;;;;2.47;1.88;;;;;;;;;;8268601;28;20944;-58
2022/09/25 14:00:00;;;;;;;1.90;1.80;;;;;;;;;;8266307;28;20030;-59
2022/09/25 14:04:06;;;;;;;2.25;1.80;;;;;;;;;;8267082;28;20941;-59
2022/09/25 14:08:06;;;;;;;5.45;2.05;;;;;;;;;;8269137;28;20021;-60
2022/09/25 14:12:13;;;;;;;2.97;1.90;;;;;;;;;;8269377;28;20530;-59
2022/09/25 14:16:24;;;;;;;1.95;1.80;;;;;;;;;;8266163;28;20038;-60
2022/09/25 14:20:27;;;;;;;2.70;1.80;;;;;;;;;;8267700;28;20061;-60
2022/09/25 14:24:28;;;;;;;4.03;2.10;;;;;;;;;;8265414;28;20029;-59
2022/09/25 14:28:30;;;;;;;4.43;2.20;;;;;;;;;;8266229;28;20033;-59
2022/09/25 14:32:41;;;;;;;3.47;2.00;;;;;;;;;;8266107;28;20164;-60
2022/09/25 14:37:04;;;;;;;4.40;1.85;;;;;;;;;;8266886;28;20123;-59
2022/09/25 14:41:14;;;;;;;3.97;2.07;;;;;;;;;;8257722;28;20037;-60
2022/09/25 14:45:23;;;;;;;4.43;2.17;;;;;;;;;;8265694;28;20018;-59
2022/09/25 14:49:28;;;;;;;4.28;2.13;;;;;;;;;;8260699;28;20028;-58
2022/09/25 14:53:34;;;;;;;4.65;2.10;;;;;;;;;;8264728;28;20084;-60
2022/09/25 14:57:36;;;;;;;6.65;2.10;;;;;;;;;;8280650;28;20068;-60
2022/09/25 15:01:43;;;;;;;2.70;1.80;;;;;;;;;;8261640;28;20043;-61
2022/09/25 15:05:47;;;;;;;3.97;1.80;;;;;;;;;;8272067;28;20018;-60
2022/09/25 15:09:48;;;;;;;3.53;1.90;;;;;;;;;;8268376;28;20026;-60
2022/09/25 15:13:48;;;;;;;4.00;1.70;;;;;;;;;;8265437;28;20044;-60
2022/09/25 15:17:49;;;;;;;2.83;1.55;;;;;;;;;;8264932;28;20052;-61
2022/09/25 15:21:51;;;;;;;2.97;1.75;;;;;;;;;;8265658;28;20034;-60
2022/09/25 15:25:55;;;;;;;2.53;1.80;;;;;;;;;;8265427;28;20804;-61
2022/09/25 15:29:56;;;;;;;3.38;1.95;;;;;;;;;;8266110;28;20107;-60
2022/09/25 15:34:22;;;;;;;3.40;1.80;;;;;;;;;;8266259;28;21484;-60
2022/09/25 15:38:29;;;;;;;5.60;1.90;;;;;;;;;;8264952;28;20546;-61
2022/09/25 15:42:29;;;;;;;4.75;2.00;;;;;;;;;;8269094;28;20025;-60
2022/09/25 15:46:35;;;;;;;5.63;2.00;;;;;;;;;;8270304;28;20045;-60
2022/09/25 15:50:36;;;;;;;6.07;1.83;;;;;;;;;;8268561;28;20497;-61
2022/09/25 15:54:47;;;;;;;2.38;1.52;;;;;;;;;;8268933;28;20018;-60
2022/09/25 15:58:49;;;;;;;4.07;2.00;;;;;;;;;;8272480;28;20061;-59
2022/09/25 16:07:29;;;;;;;7.40;2.50;;;;;;;;;;8267269;28;20039;-59
2022/09/25 16:11:30;;;;;;;8.82;2.10;;;;;;;;;;8267690;28;20117;-60
2022/09/25 16:15:41;;;;;;;5.05;2.33;;;;;;;;;;8270341;28;20042;-60
2022/09/25 16:19:41;;;;;;;4.15;2.38;;;;;;;;;;8267743;28;20026;-60
2022/09/25 16:23:42;;;;;;;8.38;2.67;;;;;;;;;;8274950;28;20474;-60
2022/09/25 16:27:43;;;;;;;6.20;2.50;;;;;;;;;;8274626;28;20111;-60
2022/09/25 16:31:43;;;;;;;12.73;5.60;;;;;;;;;;8272350;28;20044;-60
2022/09/25 16:35:46;;;;;;;6.50;2.70;;;;;;;;;;8277267;28;20037;-60
2022/09/25 16:40:06;;;;;;;4.63;2.60;;;;;;;;;;8276108;28;20710;-60
2022/09/25 16:44:15;;;;;;;9.13;3.13;;;;;;;;;;8273883;28;20026;-60
2022/09/25 16:48:36;;;;;;;9.80;3.10;;;;;;;;;;8273572;28;20298;-58
2022/09/25 16:52:39;;;;;;;6.70;2.95;;;;;;;;;;8273717;28;20483;-59
2022/09/25 16:56:41;;;;;;;6.22;3.05;;;;;;;;;;8274263;28;20076;-60
2022/09/25 17:00:41;;;;;;;10.20;2.60;;;;;;;;;;8273701;28;20080;-61
2022/09/25 17:04:42;;;;;;;9.07;2.47;;;;;;;;;;8277334;28;20048;-60
2022/09/25 17:08:42;;;;;;;8.48;2.15;;;;;;;;;;8272562;28;20030;-60
2022/09/25 17:12:44;;;;;;;9.73;2.85;;;;;;;;;;8272702;28;20136;-60
2022/09/25 17:16:44;;;;;;;9.70;2.50;;;;;;;;;;8271902;28;20049;-60
2022/09/25 17:20:44;;;;;;;6.78;2.47;;;;;;;;;;8273063;28;20027;-60
2022/09/25 17:24:45;;;;;;;4.93;2.00;;;;;;;;;;8273121;28;20025;-60
2022/09/25 17:28:46;;;;;;;5.57;2.72;;;;;;;;;;8274771;28;20084;-60
2022/09/25 17:32:49;;;;;;;8.65;4.68;;;;;;;;;;8270356;28;20228;-60
2022/09/25 17:36:50;;;;;;;9.88;5.40;;;;;;;;;;8274123;28;20112;-59
2022/09/25 17:40:51;;;;;;;6.35;3.75;;;;;;;;;;8272981;28;20041;-59
2022/09/25 17:44:51;;;;;;;4.75;2.38;;;;;;;;;;8272472;28;20417;-59
2022/09/25 17:48:51;;;;;;;7.78;3.00;;;;;;;;;;8274299;28;20125;-60
2022/09/25 17:52:53;;;;;;;4.97;2.45;;;;;;;;;;8271450;28;20037;-60
2022/09/25 17:56:53;;;;;;;5.82;2.40;;;;;;;;;;8273221;28;20144;-60
2022/09/25 18:00:53;;;;;;;6.05;2.10;;;;;;;;;;8272389;28;20073;-60
2022/09/25 18:04:54;;;;;;;3.63;1.88;;;;;;;;;;8273741;28;20485;-61
2022/09/25 18:08:54;;;;;;;4.28;2.00;;;;;;;;;;8271272;28;20029;-60
2022/09/25 18:12:55;;;;;;;7.80;2.50;;;;;;;;;;8273203;28;20030;-60
2022/09/25 18:16:55;;;;;;;4.13;2.10;;;;;;;;;;8262603;28;20232;-61
2022/09/25 18:25:15;;;;;;;4.65;2.53;;;;;;;;;;8263552;28;20083;-61
2022/09/25 18:29:16;;;;;;;5.88;2.17;;;;;;;;;;8263964;28;20657;-60
2022/09/25 18:33:16;;;;;;;7.32;2.78;;;;;;;;;;8262659;28;20069;-59
2022/09/25 18:37:16;;;;;;;6.07;2.28;;;;;;;;;;8265067;28;20272;-59
2022/09/25 18:41:16;;;;;;;4.28;2.35;;;;;;;;;;8261867;28;20023;-60
2022/09/25 18:45:17;;;;;;;5.47;2.40;;;;;;;;;;8264594;28;20032;-60
2022/09/25 18:49:17;;;;;;;4.27;2.20;;;;;;;;;;8262369;28;20175;-59
2022/09/25 18:53:18;;;;;;;7.40;2.40;;;;;;;;;;8264109;28;20360;-60
2022/09/25 18:57:19;;;;;;;9.55;2.50;;;;;;;;;;8263512;28;20446;-60
2022/09/25 19:01:19;;;;;;;5.97;2.67;;;;;;;;;;8261103;28;20091;-60
2022/09/25 19:05:20;;;;;;;8.02;2.85;;;;;;;;;;8265779;28;20811;-59
2022/09/25 19:09:23;;;;;;;5.88;2.58;;;;;;;;;;8263728;28;20442;-60
2022/09/25 19:13:27;;;;;;;5.43;1.97;;;;;;;;;;8262518;28;20104;-59
2022/09/25 19:17:27;;;;;;;2.33;2.00;;;;;;;;;;8262482;28;20556;-60
2022/09/25 19:21:29;;;;;;;7.47;2.20;;;;;;;;;;8261477;28;20422;-59
2022/09/25 19:25:29;;;;;;;7.43;2.50;;;;;;;;;;8263038;28;20029;-60
2022/09/25 19:29:30;;;;;;;11.32;4.50;;;;;;;;;;8264955;28;20374;-59
2022/09/25 19:33:32;;;;;;;11.18;4.70;;;;;;;;;;8260040;28;20042;-60
2022/09/25 19:37:32;;;;;;;8.43;2.40;;;;;;;;;;8261793;28;20056;-60
2022/09/25 19:41:33;;;;;;;14.38;3.47;;;;;;;;;;8261284;28;20037;-60
2022/09/25 19:45:35;;;;;;;11.48;4.80;;;;;;;;;;8260715;28;20132;-60
2022/09/25 19:49:35;;;;;;;15.50;4.60;;;;;;;;;;8261771;28;20412;-59
2022/09/25 19:53:37;;;;;;;10.20;5.10;;;;;;;;;;8261070;28;20062;-59
2022/09/25 19:57:38;;;;;;;23.02;8.43;;;;;;;;;;8264832;28;20437;-60
2022/09/25 20:01:38;;;;;;;16.13;6.78;;;;;;;;;;8264354;28;20038;-60
2022/09/25 20:05:40;;;;;;;15.55;7.10;;;;;;;;;;8265373;28;20018;-60
2022/09/25 20:09:40;;;;;;;18.05;5.80;;;;;;;;;;8262390;28;20855;-60
2022/09/25 20:13:41;;;;;;;11.77;5.50;;;;;;;;;;8265157;28;20159;-60
2022/09/25 20:17:41;;;;;;;8.63;3.70;;;;;;;;;;8263840;28;20084;-60
2022/09/25 20:21:41;;;;;;;12.77;5.70;;;;;;;;;;8266554;28;20152;-59
2022/09/25 20:25:42;;;;;;;18.63;6.57;;;;;;;;;;8266010;28;20029;-59
2022/09/25 20:29:42;;;;;;;16.75;5.45;;;;;;;;;;8264875;28;20022;-59
2022/09/25 20:33:42;;;;;;;16.38;6.20;;;;;;;;;;8266409;28;20541;-60
2022/09/25 20:37:45;;;;;;;12.95;5.97;;;;;;;;;;8266689;28;20609;-59
2022/09/25 20:41:46;;;;;;;15.13;5.70;;;;;;;;;;8265624;28;20079;-60
2022/09/25 20:45:54;;;;;;;8.40;3.35;;;;;;;;;;8264757;28;20133;-60
2022/09/25 20:49:54;;;;;;;7.82;3.40;;;;;;;;;;8267318;28;20017;-60
2022/09/25 20:53:56;;;;;;;6.88;3.03;;;;;;;;;;8263666;28;20121;-59
2022/09/25 20:57:57;;;;;;;7.22;2.67;;;;;;;;;;8265512;28;20484;-59
2022/09/25 21:01:57;;;;;;;8.00;2.50;;;;;;;;;;8264297;28;20483;-60
2022/09/25 21:06:05;;;;;;;5.82;2.35;;;;;;;;;;8267083;28;20041;-59
2022/09/25 21:10:05;;;;;;;6.78;2.40;;;;;;;;;;8272726;28;20021;-61
2022/09/25 21:14:05;;;;;;;6.47;2.33;;;;;;;;;;8274975;28;20021;-59
2022/09/25 21:18:06;;;;;;;5.25;2.40;;;;;;;;;;8274083;28;20423;-60
2022/09/25 21:22:06;;;;;;;5.72;2.92;;;;;;;;;;8275755;28;20646;-60
2022/09/25 21:26:09;;;;;;;6.30;2.40;;;;;;;;;;8274484;28;20860;-60
2022/09/25 21:30:09;;;;;;;3.50;2.17;;;;;;;;;;8272569;28;20088;-60
2022/09/25 21:34:10;;;;;;;7.95;2.83;;;;;;;;;;8275578;28;20021;-59
2022/09/25 21:38:10;;;;;;;4.50;2.28;;;;;;;;;;8274293;28;20030;-60
2022/09/25 21:42:11;;;;;;;6.13;2.30;;;;;;;;;;8275827;28;20688;-60
2022/09/25 21:46:18;;;;;;;4.35;2.15;;;;;;;;;;8274083;28;20033;-60
2022/09/25 21:50:18;;;;;;;4.95;2.30;;;;;;;;;;8274205;28;20026;-59
2022/09/25 21:54:19;;;;;;;8.73;2.00;;;;;;;;;;8275122;28;20057;-60
2022/09/25 21:58:19;;;;;;;4.07;1.80;;;;;;;;;;8276088;28;20018;-60
2022/09/25 22:02:19;;;;;;;4.97;1.85;;;;;;;;;;8273805;28;20045;-60
2022/09/25 22:06:25;;;;;;;3.42;2.10;;;;;;;;;;8274828;28;20125;-60
2022/09/25 22:10:25;;;;;;;5.55;2.10;;;;;;;;;;8272791;28;20490;-58
2022/09/25 22:14:25;;;;;;;4.22;1.95;;;;;;;;;;8272897;28;20028;-60
2022/09/25 22:18:26;;;;;;;5.85;2.38;;;;;;;;;;8271992;28;20076;-58
2022/09/25 22:22:26;;;;;;;5.85;2.17;;;;;;;;;;8273585;28;20032;-59
2022/09/25 22:26:27;;;;;;;4.65;2.20;;;;;;;;;;8272110;28;20113;-60
2022/09/25 22:30:27;;;;;;;9.80;2.22;;;;;;;;;;8270796;28;20041;-60
2022/09/25 22:34:27;;;;;;;3.90;1.73;;;;;;;;;;8274064;28;20876;-58
2022/09/25 22:38:28;;;;;;;6.80;1.83;;;;;;;;;;8272941;28;21057;-59
2022/09/25 22:42:28;;;;;;;5.40;1.80;;;;;;;;;;8273068;28;20037;-60
2022/09/25 22:46:28;;;;;;;2.33;1.60;;;;;;;;;;8271644;28;20042;-59
2022/09/25 22:50:28;;;;;;;5.18;1.98;;;;;;;;;;8274006;28;20076;-59
2022/09/25 22:54:29;;;;;;;9.88;2.00;;;;;;;;;;8272238;28;20074;-60
2022/09/25 22:58:29;;;;;;;6.60;1.73;;;;;;;;;;8273548;28;20030;-58
2022/09/25 23:02:29;;;;;;;6.77;2.00;;;;;;;;;;8269684;28;20044;-58
2022/09/25 23:06:32;;;;;;;2.50;1.75;;;;;;;;;;8273511;28;20251;-58
2022/09/25 23:10:33;;;;;;;5.63;2.17;;;;;;;;;;8274103;28;20032;-58
2022/09/25 23:14:33;;;;;;;6.30;1.98;;;;;;;;;;8271816;28;20033;-59
2022/09/25 23:18:35;;;;;;;8.73;2.20;;;;;;;;;;8270765;28;20042;-60
2022/09/25 23:22:36;;;;;;;5.88;2.22;;;;;;;;;;8270503;28;20030;-58
2022/09/25 23:26:36;;;;;;;4.63;2.00;;;;;;;;;;8272118;28;20040;-58
2022/09/25 23:30:36;;;;;;;7.80;1.90;;;;;;;;;;8270775;28;20263;-58
2022/09/25 23:34:37;;;;;;;4.97;1.98;;;;;;;;;;8272827;28;20033;-60
2022/09/25 23:38:37;;;;;;;5.18;2.30;;;;;;;;;;8270978;28;20045;-60
2022/09/25 23:42:37;;;;;;;11.02;2.30;;;;;;;;;;8269071;28;20025;-58
2022/09/25 23:46:38;;;;;;;5.38;2.40;;;;;;;;;;8270151;28;20561;-58
2022/09/25 23:50:39;;;;;;;4.97;2.28;;;;;;;;;;8272513;28;20032;-60
2022/09/25 23:54:39;;;;;;;6.20;1.95;;;;;;;;;;8271641;28;20029;-58
2022/09/25 23:58:39;;;;;;;4.55;2.33;;;;;;;;;;8271187;28;20068;-59
